Time;durP1;ratioP1;P1;durP2;ratioP2;P2;SDS_P1;SDS_P2;PMS_P1;PMS_P2;Temp;Humidity;BMP_temperature;BMP_pressure;BME280_temperature;BME280_humidity;BME280_pressure;Samples;Min_cycle;Max_cycle;Signal;HPM_P1;HPM_P2
2022/01/05 00:02:05;;;;;;;;;;;;;;;;;;5033586;28;19913;-71
2022/01/05 00:04:30;;;;;;;;;;;;;;;;;;5041432;28;20061;-71
2022/01/05 00:06:56;;;;;;;;;;;;;;;;;;5032113;28;19923;-72
2022/01/05 00:09:22;;;;;;;;;;;;;;;;;;5038714;28;19909;-71
2022/01/05 00:11:48;;;;;;;;;;;;;;;;;;5042069;28;19917;-71
2022/01/05 00:14:14;;;;;;;;;;;;;;;;;;5036511;28;19929;-71
2022/01/05 00:16:40;;;;;;;;;;;;;;;;;;5026956;28;20274;-71
2022/01/05 00:19:06;;;;;;;;;;;;;;;;;;5034251;28;19920;-72
2022/01/05 00:21:32;;;;;;;;;;;;;;;;;;5039626;28;20343;-72
2022/01/05 00:23:58;;;;;;;;;;;;;;;;;;5028284;28;20032;-71
2022/01/05 00:26:27;;;;;;;;;;;;;;;;;;5046963;28;20024;-71
2022/01/05 00:28:53;;;;;;;;;;;;;;;;;;5042409;28;20428;-71
2022/01/05 00:31:19;;;;;;;;;;;;;;;;;;5029921;28;19925;-72
2022/01/05 00:33:45;;;;;;;;;;;;;;;;;;5040196;28;20248;-71
2022/01/05 00:36:11;;;;;;;;;;;;;;;;;;5033918;28;19924;-71
2022/01/05 00:38:37;;;;;;;;;;;;;;;;;;5046189;28;20231;-71
2022/01/05 00:41:02;;;;;;;;;;;;;;;;;;5047163;28;20326;-72
2022/01/05 00:43:28;;;;;;;;;;;;;;;;;;5033757;28;19917;-71
2022/01/05 00:45:54;;;;;;;;;;;;;;;;;;5035971;28;19921;-72
2022/01/05 00:48:20;;;;;;;;;;;;;;;;;;5035999;28;20367;-71
2022/01/05 00:50:46;;;;;;;;;;;;;;;;;;5027245;28;19958;-71
2022/01/05 00:53:12;;;;;;;;;;;;;;;;;;5030167;28;19913;-71
2022/01/05 00:55:38;;;;;;;;;;;;;;;;;;5031918;28;20216;-71
2022/01/05 00:58:04;;;;;;;;;;;;;;;;;;5044668;28;19935;-71
2022/01/05 01:00:29;;;;;;;;;;;;;;;;;;5027064;28;19910;-71
2022/01/05 01:02:55;;;;;;;;;;;;;;;;;;5027780;28;19913;-71
2022/01/05 01:05:21;;;;;;;;;;;;;;;;;;5041479;28;19945;-71
2022/01/05 01:07:47;;;;;;;;;;;;;;;;;;5028364;28;19917;-72
2022/01/05 01:10:13;;;;;;;;;;;;;;;;;;5027343;28;19960;-71
2022/01/05 01:12:39;;;;;;;;;;;;;;;;;;5029093;28;19952;-71
2022/01/05 01:15:05;;;;;;;;;;;;;;;;;;5029437;28;19967;-71
2022/01/05 01:17:31;;;;;;;;;;;;;;;;;;5037006;28;20470;-71
2022/01/05 01:19:58;;;;;;;;;;;;;;;;;;5040986;28;20036;-72
2022/01/05 01:22:26;;;;;;;;;;;;;;;;;;5046934;28;19934;-71
2022/01/05 01:24:52;;;;;;;;;;;;;;;;;;5035056;28;19956;-71
2022/01/05 01:27:18;;;;;;;;;;;;;;;;;;5026351;28;20378;-72
2022/01/05 01:29:44;;;;;;;;;;;;;;;;;;5037783;28;19924;-71
2022/01/05 01:32:10;;;;;;;;;;;;;;;;;;5042369;28;19996;-71
2022/01/05 01:34:35;;;;;;;;;;;;;;;;;;5041296;28;19950;-72
2022/01/05 01:37:01;;;;;;;;;;;;;;;;;;5038393;28;20374;-73
2022/01/05 01:39:27;;;;;;;;;;;;;;;;;;5039052;28;19913;-71
2022/01/05 01:41:53;;;;;;;;;;;;;;;;;;5041187;28;19935;-72
2022/01/05 01:44:19;;;;;;;;;;;;;;;;;;5029743;28;19913;-71
2022/01/05 01:46:45;;;;;;;;;;;;;;;;;;5026552;28;20032;-72
2022/01/05 01:49:11;;;;;;;;;;;;;;;;;;5026326;28;19974;-72
2022/01/05 01:51:38;;;;;;;;;;;;;;;;;;5026079;28;19913;-71
2022/01/05 01:54:04;;;;;;;;;;;;;;;;;;5029674;28;19934;-71
2022/01/05 01:56:29;;;;;;;;;;;;;;;;;;5027197;28;19950;-71
2022/01/05 01:58:55;;;;;;;;;;;;;;;;;;5026847;28;19913;-72
2022/01/05 02:01:21;;;;;;;;;;;;;;;;;;5026321;28;19913;-71
2022/01/05 02:03:48;;;;;;;;;;;;;;;;;;5026304;28;19996;-73
2022/01/05 02:06:14;;;;;;;;;;;;;;;;;;5031551;28;20015;-72
2022/01/05 02:08:40;;;;;;;;;;;;;;;;;;5025748;28;20024;-72
2022/01/05 02:11:06;;;;;;;;;;;;;;;;;;5040229;28;19924;-71
2022/01/05 02:13:32;;;;;;;;;;;;;;;;;;5034978;28;20038;-72
2022/01/05 02:15:58;;;;;;;;;;;;;;;;;;5026235;28;19909;-71
2022/01/05 02:20:50;;;;;;;;;;;;;;;;;;5030693;28;19943;-71
2022/01/05 02:23:23;;;;;;;;;;;;;;;;;;5039977;28;19909;-71
2022/01/05 02:25:49;;;;;;;;;;;;;;;;;;5027402;28;19928;-71
2022/01/05 02:28:15;;;;;;;;;;;;;;;;;;5027732;28;20299;-72
2022/01/05 02:30:41;;;;;;;;;;;;;;;;;;5039268;28;19985;-71
2022/01/05 02:33:06;;;;;;;;;;;;;;;;;;5024892;28;19909;-72
2022/01/05 02:35:32;;;;;;;;;;;;;;;;;;5024814;28;19909;-71
2022/01/05 02:37:58;;;;;;;;;;;;;;;;;;5025043;28;19944;-71
2022/01/05 02:40:24;;;;;;;;;;;;;;;;;;5025079;28;19917;-71
2022/01/05 02:42:50;;;;;;;;;;;;;;;;;;5025081;28;19910;-71
2022/01/05 02:45:16;;;;;;;;;;;;;;;;;;5024996;28;19928;-71
2022/01/05 02:47:42;;;;;;;;;;;;;;;;;;5035043;28;19917;-72
2022/01/05 02:50:07;;;;;;;;;;;;;;;;;;5025939;28;20359;-71
2022/01/05 02:52:33;;;;;;;;;;;;;;;;;;5025511;28;20017;-72
2022/01/05 02:55:00;;;;;;;;;;;;;;;;;;5024199;28;19917;-71
2022/01/05 02:57:26;;;;;;;;;;;;;;;;;;5037786;28;19920;-71
2022/01/05 02:59:52;;;;;;;;;;;;;;;;;;5033472;28;20004;-71
2022/01/05 03:02:18;;;;;;;;;;;;;;;;;;5023977;28;19924;-72
2022/01/05 03:04:44;;;;;;;;;;;;;;;;;;5031659;28;20358;-71
2022/01/05 03:07:10;;;;;;;;;;;;;;;;;;5029951;28;19924;-71
2022/01/05 03:09:36;;;;;;;;;;;;;;;;;;5026152;28;19970;-71
2022/01/05 03:12:02;;;;;;;;;;;;;;;;;;5028594;28;19928;-71
2022/01/05 03:14:28;;;;;;;;;;;;;;;;;;5035747;28;19960;-71
2022/01/05 03:16:54;;;;;;;;;;;;;;;;;;5037685;28;19939;-72
2022/01/05 03:19:20;;;;;;;;;;;;;;;;;;5033178;28;19917;-72
2022/01/05 03:21:46;;;;;;;;;;;;;;;;;;5025339;28;19921;-72
2022/01/05 03:24:11;;;;;;;;;;;;;;;;;;5045579;28;19909;-72
2022/01/05 03:26:37;;;;;;;;;;;;;;;;;;5039196;28;20327;-71
2022/01/05 03:29:03;;;;;;;;;;;;;;;;;;5037532;28;19921;-71
2022/01/05 03:31:29;;;;;;;;;;;;;;;;;;5028090;28;20007;-72
2022/01/05 03:33:55;;;;;;;;;;;;;;;;;;5028555;28;19997;-71
2022/01/05 03:36:21;;;;;;;;;;;;;;;;;;5029787;28;20004;-72
2022/01/05 03:38:47;;;;;;;;;;;;;;;;;;5029100;28;19924;-71
2022/01/05 03:41:13;;;;;;;;;;;;;;;;;;5039046;28;20406;-71
2022/01/05 03:43:38;;;;;;;;;;;;;;;;;;5032072;28;19925;-72
2022/01/05 03:46:04;;;;;;;;;;;;;;;;;;5040645;28;19921;-72
2022/01/05 03:48:30;;;;;;;;;;;;;;;;;;5032910;28;19913;-72
2022/01/05 03:50:56;;;;;;;;;;;;;;;;;;5044540;28;19926;-71
2022/01/05 03:53:22;;;;;;;;;;;;;;;;;;5036397;28;20418;-72
2022/01/05 03:55:48;;;;;;;;;;;;;;;;;;5028240;28;19948;-71
2022/01/05 03:58:14;;;;;;;;;;;;;;;;;;5033476;28;19929;-71
2022/01/05 04:00:40;;;;;;;;;;;;;;;;;;5047553;28;19979;-72
2022/01/05 04:03:05;;;;;;;;;;;;;;;;;;5047379;28;19949;-71
2022/01/05 04:05:31;;;;;;;;;;;;;;;;;;5043636;28;20007;-72
2022/01/05 04:07:57;;;;;;;;;;;;;;;;;;5028070;28;19917;-71
2022/01/05 04:10:23;;;;;;;;;;;;;;;;;;5028584;28;19934;-72
2022/01/05 04:12:49;;;;;;;;;;;;;;;;;;5031866;28;19929;-72
2022/01/05 04:15:15;;;;;;;;;;;;;;;;;;5044040;28;19912;-71
2022/01/05 04:17:41;;;;;;;;;;;;;;;;;;5044453;28;19960;-72
2022/01/05 04:20:06;;;;;;;;;;;;;;;;;;5039956;28;19924;-72
2022/01/05 04:22:32;;;;;;;;;;;;;;;;;;5028419;28;20012;-71
2022/01/05 04:24:58;;;;;;;;;;;;;;;;;;5027743;28;19917;-71
2022/01/05 04:27:24;;;;;;;;;;;;;;;;;;5026249;28;20517;-72
2022/01/05 04:29:50;;;;;;;;;;;;;;;;;;5026262;28;19913;-73
2022/01/05 04:32:16;;;;;;;;;;;;;;;;;;5027109;28;20383;-71
2022/01/05 04:34:42;;;;;;;;;;;;;;;;;;5038498;28;19924;-72
2022/01/05 04:37:08;;;;;;;;;;;;;;;;;;5042251;28;19917;-71
2022/01/05 04:39:33;;;;;;;;;;;;;;;;;;5042752;28;20615;-72
2022/01/05 04:41:59;;;;;;;;;;;;;;;;;;5027144;28;19917;-71
2022/01/05 04:44:25;;;;;;;;;;;;;;;;;;5026303;28;19909;-72
2022/01/05 04:46:51;;;;;;;;;;;;;;;;;;5042691;27;19993;-71
2022/01/05 04:49:17;;;;;;;;;;;;;;;;;;5034562;28;19919;-72
2022/01/05 04:51:43;;;;;;;;;;;;;;;;;;5026836;28;19975;-71
2022/01/05 04:54:09;;;;;;;;;;;;;;;;;;5027638;28;20438;-71
2022/01/05 04:56:35;;;;;;;;;;;;;;;;;;5036899;28;20008;-71
2022/01/05 04:59:00;;;;;;;;;;;;;;;;;;5028623;28;19913;-72
2022/01/05 05:01:26;;;;;;;;;;;;;;;;;;5026303;28;20004;-71
2022/01/05 05:03:52;;;;;;;;;;;;;;;;;;5026605;28;19913;-71
2022/01/05 05:06:18;;;;;;;;;;;;;;;;;;5035752;28;19916;-74
2022/01/05 05:08:44;;;;;;;;;;;;;;;;;;5026580;28;20403;-74
2022/01/05 05:11:10;;;;;;;;;;;;;;;;;;5040213;28;20041;-73
2022/01/05 05:13:36;;;;;;;;;;;;;;;;;;5041156;28;20290;-74
2022/01/05 05:16:02;;;;;;;;;;;;;;;;;;5040990;28;20025;-73
2022/01/05 05:18:27;;;;;;;;;;;;;;;;;;5040671;28;19928;-72
2022/01/05 05:20:53;;;;;;;;;;;;;;;;;;5026077;28;19920;-71
2022/01/05 05:23:19;;;;;;;;;;;;;;;;;;5026685;28;19977;-71
2022/01/05 05:25:45;;;;;;;;;;;;;;;;;;5026429;28;20472;-71
2022/01/05 05:28:11;;;;;;;;;;;;;;;;;;5028890;28;19962;-73
2022/01/05 05:30:37;;;;;;;;;;;;;;;;;;5026940;28;20000;-71
2022/01/05 05:33:03;;;;;;;;;;;;;;;;;;5032751;28;19975;-71
2022/01/05 05:35:29;;;;;;;;;;;;;;;;;;5032580;28;19925;-71
2022/01/05 05:37:54;;;;;;;;;;;;;;;;;;5025658;28;20069;-71
2022/01/05 05:40:21;;;;;;;;;;;;;;;;;;5035330;28;20259;-71
2022/01/05 05:42:47;;;;;;;;;;;;;;;;;;5040018;28;19948;-71
2022/01/05 05:45:12;;;;;;;;;;;;;;;;;;5029968;28;20345;-72
2022/01/05 05:47:38;;;;;;;;;;;;;;;;;;5024712;28;19946;-71
2022/01/05 05:50:04;;;;;;;;;;;;;;;;;;5029782;28;20000;-71
2022/01/05 05:52:30;;;;;;;;;;;;;;;;;;5026092;28;19909;-71
2022/01/05 05:54:56;;;;;;;;;;;;;;;;;;5025618;28;19927;-71
2022/01/05 05:57:22;;;;;;;;;;;;;;;;;;5030019;28;19993;-71
2022/01/05 05:59:48;;;;;;;;;;;;;;;;;;5033641;28;19944;-71
2022/01/05 06:02:14;;;;;;;;;;;;;;;;;;5041076;28;19956;-72
2022/01/05 06:04:39;;;;;;;;;;;;;;;;;;5042824;28;20295;-72
2022/01/05 06:07:05;;;;;;;;;;;;;;;;;;5028085;28;19913;-71
2022/01/05 06:09:31;;;;;;;;;;;;;;;;;;5038947;28;20339;-73
2022/01/05 06:11:57;;;;;;;;;;;;;;;;;;5026965;28;19924;-73
2022/01/05 06:14:23;;;;;;;;;;;;;;;;;;5044808;28;19928;-73
2022/01/05 06:16:49;;;;;;;;;;;;;;;;;;5027247;28;19925;-71
2022/01/05 06:19:14;;;;;;;;;;;;;;;;;;5026686;28;20351;-71
2022/01/05 06:21:40;;;;;;;;;;;;;;;;;;5026392;28;19942;-71
2022/01/05 06:24:06;;;;;;;;;;;;;;;;;;5033182;28;19909;-71
2022/01/05 06:26:32;;;;;;;;;;;;;;;;;;5034838;28;19925;-71
2022/01/05 06:28:58;;;;;;;;;;;;;;;;;;5034785;28;19913;-71
2022/01/05 06:31:24;;;;;;;;;;;;;;;;;;5028019;28;20798;-71
2022/01/05 06:33:50;;;;;;;;;;;;;;;;;;5044462;28;19917;-71
2022/01/05 06:36:15;;;;;;;;;;;;;;;;;;5031858;28;19920;-71
2022/01/05 06:38:41;;;;;;;;;;;;;;;;;;5068287;27;19949;-71
2022/01/05 06:41:07;;;;;;;;;;;;;;;;;;5025237;28;19924;-71
2022/01/05 06:43:34;;;;;;;;;;;;;;;;;;5024641;28;20035;-71
2022/01/05 06:46:00;;;;;;;;;;;;;;;;;;5025373;28;20267;-71
2022/01/05 06:48:26;;;;;;;;;;;;;;;;;;5036120;28;19941;-71
2022/01/05 06:50:51;;;;;;;;;;;;;;;;;;5037933;28;20429;-71
2022/01/05 06:53:17;;;;;;;;;;;;;;;;;;5037716;28;19912;-72
2022/01/05 06:55:43;;;;;;;;;;;;;;;;;;5039377;28;19917;-73
2022/01/05 06:58:09;;;;;;;;;;;;;;;;;;5026342;28;19921;-73
2022/01/05 07:00:35;;;;;;;;;;;;;;;;;;5026649;28;19916;-73
2022/01/05 07:03:01;;;;;;;;;;;;;;;;;;5029137;28;19999;-73
2022/01/05 07:05:27;;;;;;;;;;;;;;;;;;5031575;28;20306;-73
2022/01/05 07:07:53;;;;;;;;;;;;;;;;;;5024221;28;19914;-73
2022/01/05 07:10:19;;;;;;;;;;;;;;;;;;5042439;28;19917;-73
2022/01/05 07:12:45;;;;;;;;;;;;;;;;;;5043813;28;19921;-71
2022/01/05 07:15:11;;;;;;;;;;;;;;;;;;5024418;28;19973;-71
2022/01/05 07:17:36;;;;;;;;;;;;;;;;;;5032572;28;19931;-71
2022/01/05 07:20:02;;;;;;;;;;;;;;;;;;5037016;28;19921;-72
2022/01/05 07:22:28;;;;;;;;;;;;;;;;;;5027615;28;19917;-71
2022/01/05 07:24:56;;;;;;;;;;;;;;;;;;5024520;28;19978;-71
2022/01/05 07:27:22;;;;;;;;;;;;;;;;;;5025932;28;20350;-71
2022/01/05 07:29:47;;;;;;;;;;;;;;;;;;5037798;28;19978;-73
2022/01/05 07:32:13;;;;;;;;;;;;;;;;;;5028525;28;20335;-71
2022/01/05 07:34:39;;;;;;;;;;;;;;;;;;5041633;28;19920;-71
2022/01/05 07:37:05;;;;;;;;;;;;;;;;;;5029811;28;19921;-71
2022/01/05 07:39:31;;;;;;;;;;;;;;;;;;5028252;28;20331;-71
2022/01/05 07:41:57;;;;;;;;;;;;;;;;;;5031411;28;19914;-71
2022/01/05 07:44:23;;;;;;;;;;;;;;;;;;5031573;28;19928;-71
2022/01/05 07:46:48;;;;;;;;;;;;;;;;;;5039677;28;19917;-70
2022/01/05 07:49:14;;;;;;;;;;;;;;;;;;5024280;28;19917;-71
2022/01/05 07:51:40;;;;;;;;;;;;;;;;;;5032670;28;19925;-71
2022/01/05 07:54:06;;;;;;;;;;;;;;;;;;5026271;28;20350;-71
2022/01/05 07:56:32;;;;;;;;;;;;;;;;;;5024535;28;19963;-71
2022/01/05 07:58:58;;;;;;;;;;;;;;;;;;5024680;28;19913;-73
2022/01/05 08:01:24;;;;;;;;;;;;;;;;;;5033524;28;19981;-73
2022/01/05 08:03:50;;;;;;;;;;;;;;;;;;5024821;28;19917;-72
2022/01/05 08:06:17;;;;;;;;;;;;;;;;;;5037232;28;19913;-72
2022/01/05 08:08:43;;;;;;;;;;;;;;;;;;5024191;28;19911;-72
2022/01/05 08:11:09;;;;;;;;;;;;;;;;;;5028231;28;19917;-73
2022/01/05 08:13:35;;;;;;;;;;;;;;;;;;5033612;28;20315;-73
2022/01/05 08:16:01;;;;;;;;;;;;;;;;;;5035046;28;19913;-73
2022/01/05 08:18:27;;;;;;;;;;;;;;;;;;5027448;28;20024;-73
2022/01/05 08:20:54;;;;;;;;;;;;;;;;;;5027736;28;19917;-73
2022/01/05 08:23:20;;;;;;;;;;;;;;;;;;5027655;28;19921;-73
2022/01/05 08:25:46;;;;;;;;;;;;;;;;;;5028558;28;20258;-72
2022/01/05 08:28:12;;;;;;;;;;;;;;;;;;5033981;28;20004;-73
2022/01/05 08:30:38;;;;;;;;;;;;;;;;;;5028707;28;19919;-73
2022/01/05 08:33:04;;;;;;;;;;;;;;;;;;5028292;28;20410;-73
2022/01/05 08:35:29;;;;;;;;;;;;;;;;;;5044777;28;19917;-73
2022/01/05 08:37:55;;;;;;;;;;;;;;;;;;5028140;28;20021;-73
2022/01/05 08:40:21;;;;;;;;;;;;;;;;;;5040281;27;19916;-73
2022/01/05 08:42:47;;;;;;;;;;;;;;;;;;5026603;28;19913;-73
2022/01/05 08:45:14;;;;;;;;;;;;;;;;;;5026925;28;19924;-73
2022/01/05 08:47:40;;;;;;;;;;;;;;;;;;5034013;28;19927;-73
2022/01/05 08:50:06;;;;;;;;;;;;;;;;;;5030149;28;19913;-73
2022/01/05 08:52:32;;;;;;;;;;;;;;;;;;5033278;28;19924;-73
2022/01/05 08:54:58;;;;;;;;;;;;;;;;;;5043730;28;19956;-72
2022/01/05 08:57:24;;;;;;;;;;;;;;;;;;5043908;28;20331;-73
2022/01/05 08:59:51;;;;;;;;;;;;;;;;;;5034871;28;19924;-74
2022/01/05 09:02:17;;;;;;;;;;;;;;;;;;5026605;28;19966;-73
2022/01/05 09:04:43;;;;;;;;;;;;;;;;;;5026802;28;19916;-73
2022/01/05 09:07:09;;;;;;;;;;;;;;;;;;5043186;28;19917;-70
2022/01/05 09:09:35;;;;;;;;;;;;;;;;;;5037244;28;20653;-73
2022/01/05 09:12:01;;;;;;;;;;;;;;;;;;5045556;28;19921;-73
2022/01/05 09:14:26;;;;;;;;;;;;;;;;;;5033271;28;20511;-71
2022/01/05 09:16:52;;;;;;;;;;;;;;;;;;5025578;28;19925;-70
2022/01/05 09:19:18;;;;;;;;;;;;;;;;;;5027056;28;19917;-71
2022/01/05 09:21:48;;;;;;;;;;;;;;;;;;5026304;28;19982;-73
2022/01/05 09:24:14;;;;;;;;;;;;;;;;;;5035507;28;19928;-72
2022/01/05 09:26:40;;;;;;;;;;;;;;;;;;5029112;28;19925;-73
2022/01/05 09:29:06;;;;;;;;;;;;;;;;;;5034828;28;20140;-73
2022/01/05 09:31:32;;;;;;;;;;;;;;;;;;5030714;28;19916;-73
2022/01/05 09:33:58;;;;;;;;;;;;;;;;;;5029327;28;19920;-73
2022/01/05 09:36:32;;;;;;;;;;;;;;;;;;5043964;28;19917;-73
2022/01/05 09:42:05;;;;;;;;;;;;;;;;;;5034984;28;19928;-74
2022/01/05 09:44:31;;;;;;;;;;;;;;;;;;5025838;28;19921;-73
2022/01/05 09:46:57;;;;;;;;;;;;;;;;;;5028192;28;19913;-74
2022/01/05 09:49:24;;;;;;;;;;;;;;;;;;5026908;28;19964;-71
2022/01/05 09:51:50;;;;;;;;;;;;;;;;;;5034178;28;20134;-71
2022/01/05 09:54:15;;;;;;;;;;;;;;;;;;5034673;28;19920;-71
2022/01/05 09:56:43;;;;;;;;;;;;;;;;;;5042646;28;19949;-71
2022/01/05 09:59:09;;;;;;;;;;;;;;;;;;5032926;28;20263;-71
2022/01/05 10:01:35;;;;;;;;;;;;;;;;;;5031714;28;19913;-72
2022/01/05 10:04:01;;;;;;;;;;;;;;;;;;5038148;28;20219;-71
2022/01/05 10:06:26;;;;;;;;;;;;;;;;;;5035379;28;19913;-71
2022/01/05 10:08:52;;;;;;;;;;;;;;;;;;5045968;28;19960;-71
2022/01/05 10:11:20;;;;;;;;;;;;;;;;;;5042074;28;19985;-71
2022/01/05 10:13:46;;;;;;;;;;;;;;;;;;5030882;28;19925;-71
2022/01/05 10:16:12;;;;;;;;;;;;;;;;;;5028768;28;19932;-72
2022/01/05 10:18:39;;;;;;;;;;;;;;;;;;5036370;28;21241;-71
2022/01/05 10:21:06;;;;;;;;;;;;;;;;;;5033707;28;19923;-71
2022/01/05 10:23:32;;;;;;;;;;;;;;;;;;5031122;28;19913;-71
2022/01/05 10:25:58;;;;;;;;;;;;;;;;;;5044900;28;20377;-71
2022/01/05 10:28:24;;;;;;;;;;;;;;;;;;5031624;28;19921;-71
2022/01/05 10:30:50;;;;;;;;;;;;;;;;;;5043491;28;20288;-72
2022/01/05 10:33:17;;;;;;;;;;;;;;;;;;5032798;28;19943;-72
2022/01/05 10:35:43;;;;;;;;;;;;;;;;;;5035906;28;20339;-71
2022/01/05 10:38:09;;;;;;;;;;;;;;;;;;5026041;28;20037;-71
2022/01/05 10:40:35;;;;;;;;;;;;;;;;;;5030889;28;20386;-71
2022/01/05 10:43:01;;;;;;;;;;;;;;;;;;5026071;28;19970;-72
2022/01/05 10:45:27;;;;;;;;;;;;;;;;;;5025611;28;19913;-71
2022/01/05 10:47:53;;;;;;;;;;;;;;;;;;5026308;28;19917;-71
2022/01/05 10:50:19;;;;;;;;;;;;;;;;;;5035604;28;19980;-71
2022/01/05 10:52:45;;;;;;;;;;;;;;;;;;5041877;28;19921;-71
2022/01/05 10:55:11;;;;;;;;;;;;;;;;;;5034172;28;20085;-71
2022/01/05 10:57:37;;;;;;;;;;;;;;;;;;5032397;28;20351;-71
2022/01/05 11:00:03;;;;;;;;;;;;;;;;;;5031129;28;20492;-73
2022/01/05 11:02:30;;;;;;;;;;;;;;;;;;5027355;28;19917;-71
2022/01/05 11:04:58;;;;;;;;;;;;;;;;;;5037476;28;19916;-71
2022/01/05 11:07:24;;;;;;;;;;;;;;;;;;5035009;28;19913;-72
2022/01/05 11:09:50;;;;;;;;;;;;;;;;;;5031105;28;19977;-72
2022/01/05 11:12:15;;;;;;;;;;;;;;;;;;5036899;28;19913;-72
2022/01/05 11:14:41;;;;;;;;;;;;;;;;;;5026984;28;19921;-72
2022/01/05 11:17:07;;;;;;;;;;;;;;;;;;5025506;28;19932;-71
2022/01/05 11:19:34;;;;;;;;;;;;;;;;;;5029464;28;20502;-71
2022/01/05 11:22:00;;;;;;;;;;;;;;;;;;5032972;28;19999;-72
2022/01/05 11:24:26;;;;;;;;;;;;;;;;;;5031895;28;20066;-72
2022/01/05 11:26:51;;;;;;;;;;;;;;;;;;5026533;28;19913;-72
2022/01/05 11:29:17;;;;;;;;;;;;;;;;;;5044692;28;19917;-72
2022/01/05 11:31:45;;;;;;;;;;;;;;;;;;5041683;28;20095;-71
2022/01/05 11:34:11;;;;;;;;;;;;;;;;;;5025468;28;19909;-71
2022/01/05 11:36:36;;;;;;;;;;;;;;;;;;5029344;28;20007;-72
2022/01/05 11:39:02;;;;;;;;;;;;;;;;;;5032159;28;19917;-72
2022/01/05 11:41:28;;;;;;;;;;;;;;;;;;5037547;28;19923;-72
2022/01/05 11:43:54;;;;;;;;;;;;;;;;;;5034293;28;19928;-72
2022/01/05 11:46:23;;;;;;;;;;;;;;;;;;5038527;28;20339;-73
2022/01/05 11:48:49;;;;;;;;;;;;;;;;;;5035449;28;20274;-73
2022/01/05 11:51:15;;;;;;;;;;;;;;;;;;5035035;28;20004;-72
2022/01/05 11:53:41;;;;;;;;;;;;;;;;;;5029486;28;19939;-72
2022/01/05 11:56:07;;;;;;;;;;;;;;;;;;5041583;28;20000;-72
2022/01/05 11:58:33;;;;;;;;;;;;;;;;;;5039437;28;19929;-72
2022/01/05 12:00:59;;;;;;;;;;;;;;;;;;5037114;28;19924;-71
2022/01/05 12:03:25;;;;;;;;;;;;;;;;;;5038911;28;20235;-72
2022/01/05 12:05:51;;;;;;;;;;;;;;;;;;5037525;28;19912;-73
2022/01/05 12:08:17;;;;;;;;;;;;;;;;;;5037069;28;19913;-72
2022/01/05 12:10:43;;;;;;;;;;;;;;;;;;5039738;28;19924;-72
2022/01/05 12:13:08;;;;;;;;;;;;;;;;;;5030001;28;20290;-73
2022/01/05 12:15:34;;;;;;;;;;;;;;;;;;5040343;28;19917;-73
2022/01/05 12:18:00;;;;;;;;;;;;;;;;;;5048426;28;19945;-73
2022/01/05 12:20:26;;;;;;;;;;;;;;;;;;5048365;28;20417;-73
2022/01/05 12:22:52;;;;;;;;;;;;;;;;;;5037031;28;19967;-73
2022/01/05 12:25:20;;;;;;;;;;;;;;;;;;5035087;28;20362;-73
2022/01/05 12:27:48;;;;;;;;;;;;;;;;;;5047137;28;19909;-73
2022/01/05 12:30:14;;;;;;;;;;;;;;;;;;5027991;28;19960;-73
2022/01/05 12:32:39;;;;;;;;;;;;;;;;;;5028357;28;20378;-73
2022/01/05 12:35:05;;;;;;;;;;;;;;;;;;5031808;28;19970;-73
2022/01/05 12:37:31;;;;;;;;;;;;;;;;;;5035783;28;19947;-73
2022/01/05 12:39:59;;;;;;;;;;;;;;;;;;5027901;28;19917;-73
2022/01/05 12:42:25;;;;;;;;;;;;;;;;;;5027674;28;19997;-72
2022/01/05 12:44:51;;;;;;;;;;;;;;;;;;5027697;28;20269;-73
2022/01/05 12:47:19;;;;;;;;;;;;;;;;;;5027760;28;19913;-72
2022/01/05 12:49:45;;;;;;;;;;;;;;;;;;5028524;28;19932;-73
2022/01/05 12:52:14;;;;;;;;;;;;;;;;;;5028252;28;20355;-72
2022/01/05 12:54:43;;;;;;;;;;;;;;;;;;5027829;28;20000;-72
2022/01/05 12:57:09;;;;;;;;;;;;;;;;;;5027033;28;20031;-73
2022/01/05 12:59:35;;;;;;;;;;;;;;;;;;5037737;28;19913;-73
2022/01/05 13:02:01;;;;;;;;;;;;;;;;;;5026694;28;20220;-72
2022/01/05 13:04:27;;;;;;;;;;;;;;;;;;5026682;28;19909;-72
2022/01/05 13:06:53;;;;;;;;;;;;;;;;;;5044539;27;20012;-73
2022/01/05 13:09:21;;;;;;;;;;;;;;;;;;5027410;28;19910;-73
2022/01/05 13:11:47;;;;;;;;;;;;;;;;;;5026709;28;20274;-72
2022/01/05 13:14:14;;;;;;;;;;;;;;;;;;5028301;28;19983;-73
2022/01/05 13:16:40;;;;;;;;;;;;;;;;;;5027713;28;20236;-73
2022/01/05 13:19:10;;;;;;;;;;;;;;;;;;5027775;28;19921;-73
2022/01/05 13:21:36;;;;;;;;;;;;;;;;;;5027331;28;19909;-73
2022/01/05 13:24:02;;;;;;;;;;;;;;;;;;5034186;28;20100;-73
2022/01/05 13:26:28;;;;;;;;;;;;;;;;;;5047232;28;19923;-73
2022/01/05 13:28:53;;;;;;;;;;;;;;;;;;5040109;28;19924;-73
2022/01/05 13:31:19;;;;;;;;;;;;;;;;;;5027418;28;20312;-73
2022/01/05 13:33:45;;;;;;;;;;;;;;;;;;5032808;28;19931;-73
2022/01/05 13:36:11;;;;;;;;;;;;;;;;;;5047155;28;19999;-72
2022/01/05 13:38:37;;;;;;;;;;;;;;;;;;5041250;28;19921;-73
2022/01/05 13:41:03;;;;;;;;;;;;;;;;;;5044283;28;20028;-73
2022/01/05 13:43:29;;;;;;;;;;;;;;;;;;5043826;28;19916;-73
2022/01/05 13:45:54;;;;;;;;;;;;;;;;;;5027068;28;20629;-72
2022/01/05 13:48:20;;;;;;;;;;;;;;;;;;5026905;28;19909;-73
2022/01/05 13:50:47;;;;;;;;;;;;;;;;;;5026847;28;20392;-72
2022/01/05 13:53:13;;;;;;;;;;;;;;;;;;5027499;28;20247;-73
2022/01/05 13:55:39;;;;;;;;;;;;;;;;;;5026640;28;19913;-73
2022/01/05 13:58:04;;;;;;;;;;;;;;;;;;5027456;28;20262;-73
2022/01/05 14:00:30;;;;;;;;;;;;;;;;;;5026593;28;19920;-73
2022/01/05 14:02:56;;;;;;;;;;;;;;;;;;5026661;28;19968;-73
2022/01/05 14:05:22;;;;;;;;;;;;;;;;;;5027754;28;19995;-73
2022/01/05 14:07:49;;;;;;;;;;;;;;;;;;5025418;28;20007;-74
2022/01/05 14:10:15;;;;;;;;;;;;;;;;;;5026783;28;19952;-73
2022/01/05 14:12:40;;;;;;;;;;;;;;;;;;5027449;28;19968;-73
2022/01/05 14:15:06;;;;;;;;;;;;;;;;;;5026688;28;19967;-72
2022/01/05 14:17:32;;;;;;;;;;;;;;;;;;5025983;28;20059;-72
2022/01/05 14:19:58;;;;;;;;;;;;;;;;;;5024490;28;20374;-73
2022/01/05 14:22:24;;;;;;;;;;;;;;;;;;5025114;28;20026;-73
2022/01/05 14:24:50;;;;;;;;;;;;;;;;;;5040038;28;20024;-73
2022/01/05 14:27:16;;;;;;;;;;;;;;;;;;5037176;28;19912;-72
2022/01/05 14:29:43;;;;;;;;;;;;;;;;;;5026069;28;20427;-73
2022/01/05 14:32:12;;;;;;;;;;;;;;;;;;5026961;28;19920;-72
2022/01/05 14:34:37;;;;;;;;;;;;;;;;;;5026366;28;20243;-72
2022/01/05 14:37:03;;;;;;;;;;;;;;;;;;5025997;28;19928;-73
2022/01/05 14:39:29;;;;;;;;;;;;;;;;;;5037978;28;19913;-72
2022/01/05 14:41:55;;;;;;;;;;;;;;;;;;5026584;28;19909;-72
2022/01/05 14:44:21;;;;;;;;;;;;;;;;;;5026012;28;19920;-73
2022/01/05 14:46:47;;;;;;;;;;;;;;;;;;5026318;28;20343;-72
2022/01/05 14:49:13;;;;;;;;;;;;;;;;;;5026357;28;19913;-72
2022/01/05 14:51:39;;;;;;;;;;;;;;;;;;5025934;28;19920;-72
2022/01/05 14:54:05;;;;;;;;;;;;;;;;;;5025692;28;20007;-73
2022/01/05 14:56:31;;;;;;;;;;;;;;;;;;5025994;28;20071;-73
2022/01/05 14:58:57;;;;;;;;;;;;;;;;;;5026040;28;20188;-72
2022/01/05 15:01:23;;;;;;;;;;;;;;;;;;5025583;28;20335;-73
2022/01/05 15:03:49;;;;;;;;;;;;;;;;;;5025726;28;20005;-74
2022/01/05 15:06:16;;;;;;;;;;;;;;;;;;5025535;28;19921;-73
2022/01/05 15:08:41;;;;;;;;;;;;;;;;;;5025556;28;19917;-73
2022/01/05 15:11:07;;;;;;;;;;;;;;;;;;5026019;28;19910;-72
2022/01/05 15:13:33;;;;;;;;;;;;;;;;;;5026971;28;20023;-72
2022/01/05 15:15:59;;;;;;;;;;;;;;;;;;5025546;28;19909;-73
2022/01/05 15:18:25;;;;;;;;;;;;;;;;;;5024663;28;19925;-73
2022/01/05 15:20:52;;;;;;;;;;;;;;;;;;5030682;28;19938;-72
2022/01/05 15:23:18;;;;;;;;;;;;;;;;;;5048068;28;19913;-72
2022/01/05 15:25:44;;;;;;;;;;;;;;;;;;5031192;28;20348;-72
2022/01/05 15:28:10;;;;;;;;;;;;;;;;;;5032387;28;19916;-72
2022/01/05 15:30:36;;;;;;;;;;;;;;;;;;5049494;28;19909;-73
2022/01/05 15:33:02;;;;;;;;;;;;;;;;;;5031225;28;19913;-73
2022/01/05 15:35:28;;;;;;;;;;;;;;;;;;5050501;28;19909;-74
2022/01/05 15:37:54;;;;;;;;;;;;;;;;;;5050746;28;20026;-73
2022/01/05 15:40:19;;;;;;;;;;;;;;;;;;5048484;28;19924;-73
2022/01/05 15:42:45;;;;;;;;;;;;;;;;;;5049469;28;19924;-73
2022/01/05 15:45:11;;;;;;;;;;;;;;;;;;5031191;28;19913;-73
2022/01/05 15:47:37;;;;;;;;;;;;;;;;;;5030998;28;20407;-72
2022/01/05 15:50:03;;;;;;;;;;;;;;;;;;5035978;28;19917;-78
2022/01/05 15:52:31;;;;;;;;;;;;;;;;;;5029421;28;20622;-74
2022/01/05 15:54:59;;;;;;;;;;;;;;;;;;5030541;28;19921;-78
2022/01/05 15:57:46;;;;;;;;;;;;;;;;;;5048342;28;19961;-73
2022/01/05 16:02:58;;;;;;;;;;;;;;;;;;5030861;28;20070;-73
2022/01/05 16:05:24;;;;;;;;;;;;;;;;;;5036883;28;20366;-73
2022/01/05 16:07:50;;;;;;;;;;;;;;;;;;5036503;27;19913;-72
2022/01/05 16:10:16;;;;;;;;;;;;;;;;;;5033666;28;19914;-73
2022/01/05 16:12:42;;;;;;;;;;;;;;;;;;5048198;28;19912;-72
2022/01/05 16:15:08;;;;;;;;;;;;;;;;;;5038593;28;19925;-73
2022/01/05 16:17:34;;;;;;;;;;;;;;;;;;5043884;27;19925;-73
2022/01/05 16:20:00;;;;;;;;;;;;;;;;;;5031565;28;19913;-73
2022/01/05 16:22:26;;;;;;;;;;;;;;;;;;5033289;28;19929;-74
2022/01/05 16:24:52;;;;;;;;;;;;;;;;;;5038266;28;19917;-73
2022/01/05 16:27:18;;;;;;;;;;;;;;;;;;5040271;28;20459;-74
2022/01/05 16:29:44;;;;;;;;;;;;;;;;;;5030793;28;19910;-73
2022/01/05 16:32:09;;;;;;;;;;;;;;;;;;5025439;28;19920;-74
2022/01/05 16:34:37;;;;;;;;;;;;;;;;;;5025712;28;20353;-74
2022/01/05 16:37:02;;;;;;;;;;;;;;;;;;5038315;28;20764;-74
2022/01/05 16:39:28;;;;;;;;;;;;;;;;;;5035374;28;19909;-74
2022/01/05 16:41:54;;;;;;;;;;;;;;;;;;5035848;28;19923;-76
2022/01/05 16:44:20;;;;;;;;;;;;;;;;;;5034462;28;19940;-75
2022/01/05 16:46:47;;;;;;;;;;;;;;;;;;5037301;28;19915;-74